createdAt,value
2022-07-30T00:04:22.569Z,3.07
2022-07-30T00:09:29.954Z,2.93
2022-07-30T00:14:41.981Z,2.80
2022-07-30T00:19:49.221Z,2.93
2022-07-30T00:24:59.536Z,3.03
2022-07-30T00:30:10.466Z,3.17
2022-07-30T00:35:21.226Z,4.30
2022-07-30T00:40:33.705Z,6.13
2022-07-30T00:45:44.417Z,6.58
2022-07-30T00:50:57.548Z,7.90
2022-07-30T00:56:06.805Z,8.23
2022-07-30T01:01:15.689Z,7.53
2022-07-30T01:06:26.361Z,7.87
2022-07-30T01:11:39.580Z,6.10
2022-07-30T01:16:50.130Z,4.60
2022-07-30T01:22:06.722Z,3.97
2022-07-30T01:27:22.902Z,4.70
2022-07-30T01:32:38.894Z,3.17
2022-07-30T01:37:49.865Z,3.60
2022-07-30T01:42:59.858Z,4.23
2022-07-30T01:48:12.589Z,4.63
2022-07-30T01:53:25.189Z,4.93
2022-07-30T01:58:43.105Z,5.20
2022-07-30T02:03:53.380Z,5.20
2022-07-30T02:09:10.876Z,5.20
2022-07-30T02:14:25.312Z,5.43
2022-07-30T02:19:37.602Z,6.30
2022-07-30T02:24:49.854Z,5.63
2022-07-30T02:30:01.345Z,5.40
2022-07-30T02:35:14.304Z,6.40
2022-07-30T02:40:25.734Z,6.60
2022-07-30T02:45:39.185Z,6.30
2022-07-30T02:50:49.913Z,6.03
2022-07-30T02:56:02.633Z,6.33
2022-07-30T03:01:14.464Z,6.37
2022-07-30T03:06:25.628Z,5.80
2022-07-30T03:11:34.455Z,6.40
2022-07-30T03:16:48.070Z,5.43
2022-07-30T03:21:59.112Z,5.90
2022-07-30T03:27:11.052Z,6.33
2022-07-30T03:32:21.050Z,4.20
2022-07-30T03:37:35.685Z,5.13
2022-07-30T03:47:59.837Z,4.10
2022-07-30T03:53:12.692Z,4.25
2022-07-30T03:58:24.440Z,8.43
2022-07-30T04:03:39.282Z,5.13
2022-07-30T04:08:47.386Z,5.17
2022-07-30T04:14:00.702Z,5.60
2022-07-30T04:19:13.905Z,5.35
2022-07-30T04:24:26.294Z,5.47
2022-07-30T04:29:34.804Z,5.17
2022-07-30T04:34:54.255Z,5.33
2022-07-30T04:40:03.833Z,5.80
2022-07-30T04:45:34.162Z,5.10
2022-07-30T04:50:48.739Z,5.00
2022-07-30T04:56:00.999Z,5.07
2022-07-30T05:01:14.058Z,4.57
2022-07-30T05:06:29.157Z,4.30
2022-07-30T05:11:41.698Z,4.20
2022-07-30T05:16:53.534Z,11.53
2022-07-30T05:22:06.401Z,4.50
2022-07-30T05:27:13.979Z,4.80
2022-07-30T05:32:25.724Z,5.17
2022-07-30T05:37:36.004Z,5.00
2022-07-30T05:42:45.565Z,4.77
2022-07-30T05:47:54.975Z,4.93
2022-07-30T05:53:03.199Z,5.17
2022-07-30T05:58:12.254Z,4.97
2022-07-30T06:03:22.615Z,5.10
2022-07-30T06:08:30.845Z,5.13
2022-07-30T06:13:41.442Z,5.00
2022-07-30T06:18:50.716Z,4.80
2022-07-30T06:24:02.870Z,4.83
2022-07-30T06:29:13.773Z,4.90
2022-07-30T06:34:23.343Z,5.53
2022-07-30T06:39:55.955Z,4.67
2022-07-30T06:44:41.430Z,4.90
2022-07-30T06:49:48.817Z,4.80
2022-07-30T06:54:58.177Z,7.67
2022-07-30T07:00:09.486Z,4.50
2022-07-30T07:05:16.397Z,5.20
2022-07-30T07:10:26.088Z,5.20
2022-07-30T07:15:37.037Z,6.77
2022-07-30T07:20:47.038Z,4.60
2022-07-30T07:25:56.611Z,5.03
2022-07-30T07:31:05.741Z,9.10
2022-07-30T07:36:16.826Z,5.93
2022-07-30T07:41:26.439Z,5.90
2022-07-30T07:46:41.680Z,5.87
2022-07-30T07:51:52.823Z,4.80
2022-07-30T07:57:03.056Z,21.77
2022-07-30T08:02:10.987Z,5.43
2022-07-30T08:07:18.059Z,3.83
2022-07-30T08:12:26.301Z,3.57
2022-07-30T08:17:34.508Z,2.80
2022-07-30T08:22:44.775Z,1.57
2022-07-30T08:27:52.630Z,2.40
2022-07-30T08:33:00.179Z,2.07
2022-07-30T08:38:12.894Z,2.40
2022-07-30T08:48:34.948Z,1.92
2022-07-30T08:53:43.999Z,1.17
2022-07-30T08:58:55.218Z,0.80
2022-07-30T09:04:03.708Z,2.00
2022-07-30T09:09:11.480Z,1.07
2022-07-30T09:14:20.506Z,1.20
2022-07-30T09:19:29.891Z,1.93
2022-07-30T09:24:45.276Z,1.63
2022-07-30T09:30:03.685Z,1.90
2022-07-30T09:35:24.394Z,1.93
2022-07-30T09:40:32.333Z,1.67
2022-07-30T09:45:56.689Z,1.50
2022-07-30T09:51:05.010Z,1.17
2022-07-30T09:56:34.270Z,1.50
2022-07-30T10:02:00.944Z,2.00
2022-07-30T10:07:10.427Z,1.93
2022-07-30T10:12:24.029Z,1.90
2022-07-30T10:17:37.011Z,1.80
2022-07-30T10:22:51.260Z,1.90
2022-07-30T10:28:02.948Z,2.50
2022-07-30T10:33:13.395Z,2.30
2022-07-30T10:38:27.149Z,2.37
2022-07-30T10:44:12.493Z,2.50
2022-07-30T10:49:28.892Z,4.10
2022-07-30T10:54:44.296Z,3.70
2022-07-30T11:00:04.070Z,3.70
2022-07-30T11:05:43.958Z,3.47
2022-07-30T11:10:47.690Z,3.67
2022-07-30T11:16:03.047Z,3.83
2022-07-30T11:21:23.100Z,3.30
2022-07-30T11:26:50.475Z,4.00
2022-07-30T11:32:05.304Z,3.50
2022-07-30T11:37:31.713Z,3.60
2022-07-30T11:42:36.656Z,3.07
2022-07-30T11:53:07.032Z,3.90
2022-07-30T11:58:40.226Z,3.40
2022-07-30T12:03:48.655Z,3.47
2022-07-30T12:08:59.282Z,3.63
2022-07-30T12:14:08.780Z,4.20
2022-07-30T12:19:16.440Z,3.93
2022-07-30T12:24:49.731Z,3.83
2022-07-30T12:30:07.914Z,3.60
2022-07-30T12:35:37.057Z,3.60
2022-07-30T12:41:15.633Z,3.60
2022-07-30T12:46:55.432Z,3.80
2022-07-30T12:52:13.282Z,3.83
2022-07-30T12:57:25.813Z,3.60
2022-07-30T13:02:51.833Z,3.80
2022-07-30T13:08:22.057Z,3.00
2022-07-30T13:13:33.143Z,3.43
2022-07-30T13:18:41.915Z,3.30
2022-07-30T13:23:48.824Z,3.10
2022-07-30T13:28:58.695Z,3.30
2022-07-30T13:34:05.121Z,2.87
2022-07-30T13:39:12.950Z,2.63
2022-07-30T13:44:19.783Z,2.90
2022-07-30T13:49:28.329Z,2.93
2022-07-30T13:54:37.380Z,2.80
2022-07-30T13:59:44.074Z,2.90
2022-07-30T14:04:52.479Z,3.00
2022-07-30T14:10:00.810Z,2.67
2022-07-30T14:15:17.668Z,2.50
2022-07-30T14:20:23.147Z,2.50
2022-07-30T14:25:30.277Z,2.60
2022-07-30T14:30:38.138Z,2.07
2022-07-30T14:35:45.680Z,1.90
2022-07-30T14:40:52.901Z,1.90
2022-07-30T14:46:00.290Z,2.00
2022-07-30T14:51:16.200Z,1.90
2022-07-30T14:56:18.260Z,4.43
2022-07-30T15:01:25.822Z,2.10
2022-07-30T15:06:33.841Z,1.93
2022-07-30T15:12:07.581Z,2.00
2022-07-30T15:16:49.999Z,1.93
2022-07-30T15:21:58.082Z,1.70
2022-07-30T15:27:05.949Z,1.80
2022-07-30T15:32:13.066Z,1.53
2022-07-30T15:37:22.032Z,1.60
2022-07-30T15:42:30.536Z,1.43
2022-07-30T15:47:38.070Z,1.43
2022-07-30T15:52:46.897Z,1.40
2022-07-30T15:57:55.826Z,1.30
2022-07-30T16:03:02.824Z,1.20
2022-07-30T16:08:12.584Z,1.33
2022-07-30T16:13:21.209Z,1.40
2022-07-30T16:18:27.994Z,1.47
2022-07-30T16:23:37.354Z,1.20
2022-07-30T16:28:45.541Z,1.30
2022-07-30T16:33:53.111Z,1.80
2022-07-30T16:39:01.705Z,1.40
2022-07-30T16:44:09.595Z,1.47
2022-07-30T16:49:16.985Z,1.60
2022-07-30T16:54:24.176Z,1.30
2022-07-30T16:59:31.270Z,1.40
2022-07-30T17:04:39.860Z,1.20
2022-07-30T17:09:52.485Z,1.13
2022-07-30T17:14:56.757Z,1.20
2022-07-30T17:20:06.067Z,1.47
2022-07-30T17:25:14.137Z,1.20
2022-07-30T17:30:20.968Z,1.20
2022-07-30T17:35:27.813Z,1.30
2022-07-30T17:40:34.652Z,1.20
2022-07-30T17:45:41.678Z,1.20
2022-07-30T17:50:48.351Z,1.37
2022-07-30T17:55:57.670Z,1.30
2022-07-30T18:01:05.293Z,1.47
2022-07-30T18:06:12.037Z,1.30
2022-07-30T18:11:20.161Z,1.33
2022-07-30T18:16:28.293Z,1.30
2022-07-30T18:21:38.500Z,1.40
2022-07-30T18:26:47.601Z,1.30
2022-07-30T18:31:54.324Z,1.50
2022-07-30T18:37:01.462Z,1.40
2022-07-30T18:42:09.607Z,1.40
2022-07-30T18:47:16.442Z,1.50
2022-07-30T18:52:25.018Z,1.60
2022-07-30T18:57:32.502Z,1.50
2022-07-30T19:02:41.161Z,1.43
2022-07-30T19:07:57.112Z,1.57
2022-07-30T19:12:58.222Z,1.50
2022-07-30T19:18:05.576Z,1.60
2022-07-30T19:23:14.063Z,1.70
2022-07-30T19:28:20.897Z,1.50
2022-07-30T19:33:27.618Z,1.50
2022-07-30T19:38:34.710Z,1.63
2022-07-30T19:43:55.607Z,1.70
2022-07-30T19:48:53.765Z,1.77
2022-07-30T19:54:02.604Z,1.70
2022-07-30T19:59:14.727Z,1.50
2022-07-30T20:04:20.680Z,1.60
2022-07-30T20:09:29.023Z,1.60
2022-07-30T20:14:38.138Z,1.70
2022-07-30T20:19:47.639Z,1.80
2022-07-30T20:24:56.907Z,1.90
2022-07-30T20:30:07.287Z,1.70
2022-07-30T20:35:14.175Z,1.80
2022-07-30T20:40:21.849Z,2.10
2022-07-30T20:45:37.846Z,1.80
2022-07-30T20:50:40.570Z,2.13
2022-07-30T20:55:48.262Z,2.30
2022-07-30T21:00:56.977Z,1.90
2022-07-30T21:06:04.241Z,1.93
2022-07-30T21:11:12.586Z,2.10
2022-07-30T21:16:21.832Z,2.10
2022-07-30T21:21:32.857Z,2.30
2022-07-30T21:26:37.696Z,1.90
2022-07-30T21:31:58.057Z,2.37
2022-07-30T21:36:56.808Z,1.80
2022-07-30T21:42:04.169Z,1.80
2022-07-30T21:47:12.006Z,1.70
2022-07-30T21:52:19.085Z,1.80
2022-07-30T21:57:26.608Z,1.80
2022-07-30T22:02:34.178Z,1.70
2022-07-30T22:07:42.028Z,1.90
2022-07-30T22:12:48.931Z,2.00
2022-07-30T22:23:31.802Z,2.20
2022-07-30T22:28:38.717Z,1.73
2022-07-30T22:33:49.938Z,2.00
2022-07-30T22:38:59.349Z,1.93
2022-07-30T22:44:06.389Z,2.07
2022-07-30T22:49:24.218Z,2.07
2022-07-30T22:54:25.166Z,2.00
2022-07-30T22:59:59.893Z,2.53
2022-07-30T23:04:41.338Z,2.23
2022-07-30T23:09:52.113Z,1.90
2022-07-30T23:14:57.838Z,2.10
2022-07-30T23:20:07.024Z,2.10
2022-07-30T23:25:15.848Z,2.10
2022-07-30T23:30:23.677Z,2.00
2022-07-30T23:35:33.196Z,2.50
2022-07-30T23:40:41.663Z,2.03
2022-07-30T23:45:49.177Z,1.90
2022-07-30T23:50:57.731Z,2.23
2022-07-30T23:56:05.427Z,2.40
